Ncc Rabigh — HZQA — position and weather

sailwx.info

Track history (hours):
 
Tides and Currents Weather Stations Pressure Air Temp Water Temp Dewpoint Dewpoint Depression Visibility Wind Speed Wind Dir Waves Ship Positions

Ncc Rabigh

Last reported at 2014-Nov-15 23:32 UTC. Time now 2014-Nov-27 05:38 UTC.
Position N 35°60' E 015°11'.
Warning: this ship's position is 11 days out of date.

Length 183 m; draft 12 m.

Type: Tanker. MMSI: 403575000.

Date/timePositionNaut miles runAvg speedWind from/ knotsBaromVisibWave heightAir tempDewpointWater temp
2014-Nov-15 23:32N 35°60' E 015°11'1814.5
2014-Nov-15 22:17N 36°05' E 014°49'1114.7
2014-Nov-15 21:33N 36°08' E 014°36'1514.6
2014-Nov-15 20:33N 36°12' E 014°19'1414.4
2014-Nov-15 19:33N 36°17' E 014°02'1614.3
2014-Nov-15 18:28N 36°24' E 013°45'1314.0
2014-Nov-15 17:32N 36°28' E 013°30'1414.1
2014-Nov-15 16:32N 36°34' E 013°14'1514.1
2014-Nov-15 15:29N 36°40' E 012°57'11614.2
2014-Nov-15 07:19N 37°29' E 010°45'1215.6
2014-Nov-15 06:33N 37°31' E 010°30'1715.6
2014-Nov-15 05:29N 37°33' E 010°09'1415.3
2014-Nov-15 04:33N 37°31' E 009°52'6615.1
2014-Nov-15 00:11N 37°20' E 008°30'1015.4
2014-Nov-14 23:33N 37°20' E 008°17'1915.2
2014-Nov-14 22:18N 37°20' E 007°53'1215.0
2014-Nov-14 21:30N 37°20' E 007°38'62213.5
2014-Nov-12 23:30N 36°01' W 005°11'1212.3
2014-Nov-12 22:33N 36°07' W 005°23'2 1.6
2014-Nov-12 21:29N 36°08' W 005°22'0 0.0
2014-Nov-12 20:29N 36°08' W 005°22'0 0.1
2014-Nov-12 19:29N 36°08' W 005°22'0 0.0
2014-Nov-12 18:32N 36°08' W 005°22'0 0.0
2014-Nov-12 17:32N 36°08' W 005°22'0 0.0
2014-Nov-12 16:32N 36°08' W 005°22'0 0.1
2014-Nov-12 15:32N 36°08' W 005°22'2 2.5
2014-Nov-12 14:33N 36°06' W 005°22'8 7.9
2014-Nov-12 13:33N 35°58' W 005°25'  
2014-Nov-08 15:32N 50°01' W 002°49'9610.4
2014-Nov-08 06:22N 50°26' W 000°25'1311.9
2014-Nov-08 05:15N 50°30' W 000°04'912.8
2014-Nov-08 04:33N 50°32' E 000°09'1313.1
2014-Nov-08 03:33N 50°36' E 000°29'1212.0
2014-Nov-08 02:33N 50°42' E 000°45'1111.3
2014-Nov-08 01:33N 50°49' E 000°59'1010.0
2014-Nov-08 00:34N 50°55' E 001°11'9 8.9
2014-Nov-07 23:33N 51°01' E 001°22'9 8.7
2014-Nov-07 22:33N 51°07' E 001°33'1111.0
2014-Nov-07 21:34N 51°14' E 001°46'1313.3
2014-Nov-07 20:34N 51°26' E 001°56'1413.9
2014-Nov-07 19:34N 51°36' E 002°10'1312.3
2014-Nov-07 18:32N 51°46' E 002°23'59 9.3
2014-Nov-07 12:11N 52°30' E 003°28'710.3
2014-Nov-07 11:31N 52°31' E 003°39'1111.6
2014-Nov-07 10:33N 52°31' E 003°58'1312.7
2014-Nov-07 09:33N 52°30' E 004°18'1010.1
2014-Nov-07 08:33N 52°28' E 004°35'4 3.6
2014-Nov-07 07:34N 52°27' E 004°40'5 5.0
2014-Nov-07 06:33N 52°24' E 004°47'0 0.0
2014-Nov-07 05:33N 52°24' E 004°47'0 0.0
2014-Nov-07 04:33N 52°24' E 004°47'0 0.0
2014-Nov-07 03:33N 52°24' E 004°47'0 0.0
2014-Nov-07 02:30N 52°24' E 004°47'0 0.0
2014-Nov-07 01:33N 52°24' E 004°47'0 0.0
2014-Nov-07 00:33N 52°24' E 004°47'0 0.0
2014-Nov-06 23:33N 52°24' E 004°47'0 0.0
2014-Nov-06 22:33N 52°24' E 004°47'0 0.0
2014-Nov-06 21:33N 52°24' E 004°47'0 0.0
2014-Nov-06 20:33N 52°24' E 004°47'0 0.0
2014-Nov-06 19:33N 52°24' E 004°47'0 0.0
2014-Nov-06 18:33N 52°24' E 004°47'0 0.0
2014-Nov-06 17:33N 52°24' E 004°47'0 0.0
2014-Nov-06 16:33N 52°24' E 004°47'0 0.0
2014-Nov-06 15:33N 52°24' E 004°47'0 0.0
2014-Nov-06 14:33N 52°24' E 004°47'0 0.0
2014-Nov-06 13:33N 52°24' E 004°47'0 0.0
2014-Nov-06 12:33N 52°24' E 004°47'0 0.0
2014-Nov-06 11:33N 52°24' E 004°47'0 0.0
2014-Nov-06 10:27N 52°24' E 004°47'0 0.0
2014-Nov-06 09:33N 52°24' E 004°47'0 0.0
2014-Nov-06 08:33N 52°24' E 004°47'0 0.0
2014-Nov-06 07:33N 52°24' E 004°47'0 0.0
2014-Nov-06 06:33N 52°24' E 004°47'0 0.0
2014-Nov-06 05:33N 52°24' E 004°47'0 0.0
2014-Nov-06 04:33N 52°24' E 004°47'0 0.0
2014-Nov-06 03:33N 52°24' E 004°47'0 0.0
2014-Nov-06 02:33N 52°24' E 004°47'0 0.0
2014-Nov-06 01:33N 52°24' E 004°47'0 0.0
2014-Nov-06 00:33N 52°24' E 004°47'0 0.0
2014-Nov-05 23:33N 52°24' E 004°47'  
Track history (hours):
 
Tides and Currents Weather Stations Pressure Air Temp Water Temp Dewpoint Dewpoint Depression Visibility Wind Speed Wind Dir Waves Ship Positions

Ncc Rabigh

Last reported at 2014-Nov-15 23:32 UTC. Time now 2014-Nov-27 05:38 UTC.
Position N 35°60' E 015°11'.
Warning: this ship's position is 11 days out of date.

Length 183 m; draft 12 m.

Type: Tanker. MMSI: 403575000.

Date/timePositionNaut miles runAvg speedWind from/ knotsBaromVisibWave heightAir tempDewpointWater temp
2014-Nov-15 23:32N 35°60' E 015°11'1814.5
2014-Nov-15 22:17N 36°05' E 014°49'1114.7
2014-Nov-15 21:33N 36°08' E 014°36'1514.6
2014-Nov-15 20:33N 36°12' E 014°19'1414.4
2014-Nov-15 19:33N 36°17' E 014°02'1614.3
2014-Nov-15 18:28N 36°24' E 013°45'1314.0
2014-Nov-15 17:32N 36°28' E 013°30'1414.1
2014-Nov-15 16:32N 36°34' E 013°14'1514.1
2014-Nov-15 15:29N 36°40' E 012°57'11614.2
2014-Nov-15 07:19N 37°29' E 010°45'1215.6
2014-Nov-15 06:33N 37°31' E 010°30'1715.6
2014-Nov-15 05:29N 37°33' E 010°09'1415.3
2014-Nov-15 04:33N 37°31' E 009°52'6615.1
2014-Nov-15 00:11N 37°20' E 008°30'1015.4
2014-Nov-14 23:33N 37°20' E 008°17'1915.2
2014-Nov-14 22:18N 37°20' E 007°53'1215.0
2014-Nov-14 21:30N 37°20' E 007°38'62213.5
2014-Nov-12 23:30N 36°01' W 005°11'1212.3
2014-Nov-12 22:33N 36°07' W 005°23'2 1.6
2014-Nov-12 21:29N 36°08' W 005°22'0 0.0
2014-Nov-12 20:29N 36°08' W 005°22'0 0.1
2014-Nov-12 19:29N 36°08' W 005°22'0 0.0
2014-Nov-12 18:32N 36°08' W 005°22'0 0.0
2014-Nov-12 17:32N 36°08' W 005°22'0 0.0
2014-Nov-12 16:32N 36°08' W 005°22'0 0.1
2014-Nov-12 15:32N 36°08' W 005°22'2 2.5
2014-Nov-12 14:33N 36°06' W 005°22'8 7.9
2014-Nov-12 13:33N 35°58' W 005°25'  
2014-Nov-08 15:32N 50°01' W 002°49'9610.4
2014-Nov-08 06:22N 50°26' W 000°25'1311.9
2014-Nov-08 05:15N 50°30' W 000°04'912.8
2014-Nov-08 04:33N 50°32' E 000°09'1313.1
2014-Nov-08 03:33N 50°36' E 000°29'1212.0
2014-Nov-08 02:33N 50°42' E 000°45'1111.3
2014-Nov-08 01:33N 50°49' E 000°59'1010.0
2014-Nov-08 00:34N 50°55' E 001°11'9 8.9
2014-Nov-07 23:33N 51°01' E 001°22'9 8.7
2014-Nov-07 22:33N 51°07' E 001°33'1111.0
2014-Nov-07 21:34N 51°14' E 001°46'1313.3
2014-Nov-07 20:34N 51°26' E 001°56'1413.9
2014-Nov-07 19:34N 51°36' E 002°10'1312.3
2014-Nov-07 18:32N 51°46' E 002°23'59 9.3
2014-Nov-07 12:11N 52°30' E 003°28'710.3
2014-Nov-07 11:31N 52°31' E 003°39'1111.6
2014-Nov-07 10:33N 52°31' E 003°58'1312.7
2014-Nov-07 09:33N 52°30' E 004°18'1010.1
2014-Nov-07 08:33N 52°28' E 004°35'4 3.6
2014-Nov-07 07:34N 52°27' E 004°40'5 5.0
2014-Nov-07 06:33N 52°24' E 004°47'0 0.0
2014-Nov-07 05:33N 52°24' E 004°47'0 0.0
2014-Nov-07 04:33N 52°24' E 004°47'0 0.0
2014-Nov-07 03:33N 52°24' E 004°47'0 0.0
2014-Nov-07 02:30N 52°24' E 004°47'0 0.0
2014-Nov-07 01:33N 52°24' E 004°47'0 0.0
2014-Nov-07 00:33N 52°24' E 004°47'0 0.0
2014-Nov-06 23:33N 52°24' E 004°47'0 0.0
2014-Nov-06 22:33N 52°24' E 004°47'0 0.0
2014-Nov-06 21:33N 52°24' E 004°47'0 0.0
2014-Nov-06 20:33N 52°24' E 004°47'0 0.0
2014-Nov-06 19:33N 52°24' E 004°47'0 0.0
2014-Nov-06 18:33N 52°24' E 004°47'0 0.0
2014-Nov-06 17:33N 52°24' E 004°47'0 0.0
2014-Nov-06 16:33N 52°24' E 004°47'0 0.0
2014-Nov-06 15:33N 52°24' E 004°47'0 0.0
2014-Nov-06 14:33N 52°24' E 004°47'0 0.0
2014-Nov-06 13:33N 52°24' E 004°47'0 0.0
2014-Nov-06 12:33N 52°24' E 004°47'0 0.0
2014-Nov-06 11:33N 52°24' E 004°47'0 0.0
2014-Nov-06 10:27N 52°24' E 004°47'0 0.0
2014-Nov-06 09:33N 52°24' E 004°47'0 0.0
2014-Nov-06 08:33N 52°24' E 004°47'0 0.0
2014-Nov-06 07:33N 52°24' E 004°47'0 0.0
2014-Nov-06 06:33N 52°24' E 004°47'0 0.0
2014-Nov-06 05:33N 52°24' E 004°47'0 0.0
2014-Nov-06 04:33N 52°24' E 004°47'0 0.0
2014-Nov-06 03:33N 52°24' E 004°47'0 0.0
2014-Nov-06 02:33N 52°24' E 004°47'0 0.0
2014-Nov-06 01:33N 52°24' E 004°47'0 0.0
2014-Nov-06 00:33N 52°24' E 004°47'0 0.0
2014-Nov-05 23:33N 52°24' E 004°47'  

Dump ship's entire track history